createdAt,value
2017-05-11T00:00:09.541Z,8.67
2017-05-11T00:00:50.405Z,8.63
2017-05-11T00:01:31.288Z,8.64
2017-05-11T00:02:12.175Z,8.71
2017-05-11T00:02:53.052Z,8.73
2017-05-11T00:03:33.934Z,8.64
2017-05-11T00:04:14.814Z,8.63
2017-05-11T00:04:55.699Z,8.69
2017-05-11T00:05:36.604Z,8.71
2017-05-11T00:06:17.463Z,8.6
2017-05-11T00:06:58.345Z,8.61
2017-05-11T00:07:39.235Z,8.63
2017-05-11T00:08:20.110Z,8.61
2017-05-11T00:09:01.014Z,8.6
2017-05-11T00:09:41.871Z,8.58
2017-05-11T00:10:22.766Z,8.58
2017-05-11T00:11:03.637Z,8.56
2017-05-11T00:11:44.519Z,8.6
2017-05-11T00:12:25.402Z,8.61
2017-05-11T00:13:06.291Z,8.56
2017-05-11T00:13:47.180Z,8.55
2017-05-11T00:14:28.052Z,8.58
2017-05-11T00:15:08.940Z,8.58
2017-05-11T00:15:49.830Z,8.58
2017-05-11T00:16:30.714Z,8.51
2017-05-11T00:17:11.597Z,8.51
2017-05-11T00:17:52.484Z,8.46
2017-05-11T00:18:33.381Z,8.51
2017-05-11T00:19:14.262Z,8.49
2017-05-11T00:19:55.160Z,8.49
2017-05-11T00:20:36.017Z,8.45
2017-05-11T00:21:16.920Z,8.48
2017-05-11T00:21:57.809Z,8.46
2017-05-11T00:22:38.711Z,8.45
2017-05-11T00:23:19.574Z,8.48
2017-05-11T00:24:00.453Z,8.45
2017-05-11T00:24:41.336Z,8.46
2017-05-11T00:25:22.232Z,8.45
2017-05-11T00:26:03.120Z,8.49
2017-05-11T00:26:44.018Z,8.45
2017-05-11T00:27:24.889Z,8.48
2017-05-11T00:28:05.769Z,8.48
2017-05-11T00:28:46.648Z,8.48
2017-05-11T00:29:27.543Z,8.48
2017-05-11T00:30:08.419Z,8.48
2017-05-11T00:30:49.317Z,8.46
2017-05-11T00:31:30.221Z,8.41
2017-05-11T00:32:11.081Z,8.33
2017-05-11T00:32:51.949Z,8.41
2017-05-11T00:33:32.818Z,8.42
2017-05-11T00:34:13.709Z,8.37
2017-05-11T00:34:54.593Z,8.33
2017-05-11T00:35:35.469Z,8.34
2017-05-11T00:36:16.335Z,8.37
2017-05-11T00:36:57.220Z,8.37
2017-05-11T00:37:38.115Z,8.37
2017-05-11T00:38:19.005Z,8.37
2017-05-11T00:38:59.861Z,8.36
2017-05-11T00:39:40.727Z,8.36
2017-05-11T00:40:21.599Z,8.42
2017-05-11T00:41:02.480Z,8.41
2017-05-11T00:41:43.361Z,8.37
2017-05-11T00:42:24.239Z,8.3
2017-05-11T00:43:05.104Z,8.3
2017-05-11T00:43:45.977Z,8.24
2017-05-11T00:44:26.864Z,8.33
2017-05-11T00:45:07.785Z,8.27
2017-05-11T00:45:48.651Z,8.16
2017-05-11T00:46:29.520Z,8.19
2017-05-11T00:47:10.416Z,8.2
2017-05-11T00:47:51.304Z,8.19
2017-05-11T00:48:32.199Z,8.18
2017-05-11T00:49:13.111Z,8.13
2017-05-11T00:49:54.001Z,8.2
2017-05-11T00:50:34.874Z,8.23
2017-05-11T00:51:15.767Z,8.15
2017-05-11T00:51:56.658Z,8.05
2017-05-11T00:52:37.528Z,8.08
2017-05-11T00:53:18.428Z,8.1
2017-05-11T00:53:59.322Z,8.09
2017-05-11T00:54:40.193Z,8.03
2017-05-11T00:55:21.870Z,8.03
2017-05-11T00:56:02.742Z,8.03
2017-05-11T00:56:43.660Z,8.05
2017-05-11T00:57:24.565Z,8.08
2017-05-11T00:58:05.417Z,8.03
2017-05-11T00:58:46.281Z,8.01
2017-05-11T00:59:27.188Z,8.05
2017-05-11T01:00:08.071Z,7.97
2017-05-11T01:00:48.947Z,8
2017-05-11T01:01:29.829Z,7.95
2017-05-11T01:02:10.718Z,7.97
2017-05-11T01:02:51.606Z,7.9
2017-05-11T01:03:32.505Z,7.93
2017-05-11T01:04:13.382Z,7.93
2017-05-11T01:04:54.267Z,7.83
2017-05-11T01:05:35.168Z,7.88
2017-05-11T01:06:16.033Z,7.88
2017-05-11T01:06:56.913Z,7.83
2017-05-11T01:07:37.797Z,7.87
2017-05-11T01:08:18.692Z,7.85
2017-05-11T01:08:59.562Z,7.9
2017-05-11T01:09:40.437Z,7.85
2017-05-11T01:10:21.324Z,7.85
2017-05-11T01:11:02.201Z,7.82
2017-05-11T01:11:43.080Z,7.76
2017-05-11T01:12:23.941Z,7.77
2017-05-11T01:13:04.816Z,7.85
2017-05-11T01:13:45.692Z,7.87
2017-05-11T01:14:26.563Z,7.88
2017-05-11T01:15:07.446Z,7.85
2017-05-11T01:15:48.329Z,7.88
2017-05-11T01:16:29.210Z,7.88
2017-05-11T01:17:10.092Z,7.83
2017-05-11T01:17:50.981Z,7.82
2017-05-11T01:18:31.890Z,7.82
2017-05-11T01:19:12.708Z,7.85
2017-05-11T01:19:53.575Z,7.87
2017-05-11T01:20:34.454Z,7.87
2017-05-11T01:21:15.353Z,7.88
2017-05-11T01:21:56.236Z,7.94
2017-05-11T01:22:37.134Z,7.85
2017-05-11T01:23:17.975Z,7.88
2017-05-11T01:23:58.858Z,7.94
2017-05-11T01:24:39.752Z,7.9
2017-05-11T01:26:07.850Z,7.95
2017-05-11T01:26:48.695Z,7.95
2017-05-11T01:27:29.567Z,7.97
2017-05-11T01:28:10.430Z,7.98
2017-05-11T01:28:51.307Z,7.93
2017-05-11T01:29:32.194Z,7.97
2017-05-11T01:30:13.069Z,7.91
2017-05-11T01:30:53.939Z,7.95
2017-05-11T01:31:34.819Z,7.97
2017-05-11T01:32:15.683Z,7.83
2017-05-11T01:32:56.542Z,7.9
2017-05-11T01:33:37.401Z,7.88
2017-05-11T01:34:18.273Z,7.97
2017-05-11T01:34:59.157Z,7.87
2017-05-11T01:35:40.033Z,7.88
2017-05-11T01:36:20.922Z,7.83
2017-05-11T01:37:01.805Z,7.82
2017-05-11T01:37:42.692Z,7.8
2017-05-11T01:38:23.580Z,7.79
2017-05-11T01:39:04.467Z,7.8
2017-05-11T01:39:45.323Z,7.73
2017-05-11T01:40:26.228Z,7.8
2017-05-11T01:41:07.114Z,7.76
2017-05-11T01:41:48.015Z,7.66
2017-05-11T01:42:28.852Z,7.73
2017-05-11T01:43:09.761Z,7.75
2017-05-11T01:43:50.650Z,7.7
2017-05-11T01:44:31.527Z,7.75
2017-05-11T01:45:12.398Z,7.6
2017-05-11T01:45:53.291Z,7.69
2017-05-11T01:46:34.189Z,7.7
2017-05-11T01:47:15.067Z,7.66
2017-05-11T01:47:55.929Z,7.69
2017-05-11T01:48:36.784Z,7.66
2017-05-11T01:49:17.647Z,7.75
2017-05-11T01:49:58.544Z,7.56
2017-05-11T01:50:39.429Z,7.63
2017-05-11T01:51:20.311Z,7.67
2017-05-11T01:52:01.187Z,7.67
2017-05-11T01:52:42.081Z,7.67
2017-05-11T01:53:22.992Z,7.6
2017-05-11T01:54:03.849Z,7.66
2017-05-11T01:54:44.727Z,7.61
2017-05-11T01:55:25.603Z,7.57
2017-05-11T01:56:06.491Z,7.58
2017-05-11T01:56:47.357Z,7.58
2017-05-11T01:57:28.231Z,7.53
2017-05-11T01:58:09.119Z,7.58
2017-05-11T01:58:50.008Z,7.54
2017-05-11T01:59:30.901Z,7.51
2017-05-11T02:00:11.777Z,7.53
2017-05-11T02:00:52.654Z,7.54
2017-05-11T02:01:33.513Z,7.58
2017-05-11T02:02:14.397Z,7.57
2017-05-11T02:02:55.277Z,7.53
2017-05-11T02:03:36.169Z,7.61
2017-05-11T02:04:17.027Z,7.51
2017-05-11T02:04:57.894Z,7.53
2017-05-11T02:05:38.763Z,7.53
2017-05-11T02:06:19.653Z,7.5
2017-05-11T02:07:00.544Z,7.53
2017-05-11T02:07:41.422Z,7.51
2017-05-11T02:08:22.309Z,7.53
2017-05-11T02:09:03.199Z,7.47
2017-05-11T02:09:44.077Z,7.53
2017-05-11T02:10:24.947Z,7.47
2017-05-11T02:11:05.819Z,7.57
2017-05-11T02:11:46.704Z,7.56
2017-05-11T02:12:27.592Z,7.53
2017-05-11T02:13:08.479Z,7.51
2017-05-11T02:13:49.343Z,7.5
2017-05-11T02:14:30.228Z,7.5
2017-05-11T02:15:12.655Z,7.51
2017-05-11T02:16:31.472Z,7.54
2017-05-11T02:17:12.351Z,7.51
2017-05-11T02:17:53.254Z,7.5
2017-05-11T02:18:34.116Z,7.51
2017-05-11T02:19:14.989Z,7.5
2017-05-11T02:19:55.855Z,7.51
2017-05-11T02:20:36.740Z,7.47
2017-05-11T02:21:17.630Z,7.47
2017-05-11T02:21:58.506Z,7.45
2017-05-11T02:22:40.211Z,7.47
2017-05-11T02:23:21.110Z,7.45
2017-05-11T02:24:01.990Z,7.38
2017-05-11T02:24:42.870Z,7.36
2017-05-11T02:25:23.749Z,7.29
2017-05-11T02:26:04.646Z,7.36
2017-05-11T02:26:45.523Z,7.28
2017-05-11T02:27:26.401Z,7.4
2017-05-11T02:28:07.286Z,7.36
2017-05-11T02:28:48.175Z,7.29
2017-05-11T02:29:29.063Z,7.4
2017-05-11T02:30:09.939Z,7.42
2017-05-11T02:30:50.838Z,7.43
2017-05-11T02:31:31.728Z,7.36
2017-05-11T02:32:12.608Z,7.38
2017-05-11T02:32:53.488Z,7.43
2017-05-11T02:33:34.377Z,7.38
2017-05-11T02:34:15.282Z,7.38
2017-05-11T02:34:56.141Z,7.39
2017-05-11T02:35:37.017Z,7.38
2017-05-11T02:36:17.896Z,7.31
2017-05-11T02:36:58.827Z,7.45
2017-05-11T02:37:39.704Z,7.43
2017-05-11T02:38:20.591Z,7.42
2017-05-11T02:39:01.475Z,7.39
2017-05-11T02:39:42.487Z,7.28
2017-05-11T02:40:23.371Z,7.31
2017-05-11T02:41:04.251Z,7.36
2017-05-11T02:41:45.127Z,7.33
2017-05-11T02:42:26.002Z,7.32
2017-05-11T02:43:59.230Z,7.29
2017-05-11T02:44:40.106Z,7.31
2017-05-11T02:45:20.984Z,7.31
2017-05-11T02:46:01.877Z,7.24
2017-05-11T02:46:42.761Z,7.25
2017-05-11T02:47:23.645Z,7.2
2017-05-11T02:48:04.527Z,7.2
2017-05-11T02:48:45.393Z,7.2
2017-05-11T02:49:26.276Z,7.24
2017-05-11T02:50:07.173Z,7.2
2017-05-11T02:50:48.052Z,7.15
2017-05-11T02:51:28.934Z,7.25
2017-05-11T02:52:09.815Z,7.23
2017-05-11T02:52:50.706Z,7.15
2017-05-11T02:53:31.578Z,7.15
2017-05-11T02:54:12.455Z,7.15
2017-05-11T02:54:53.395Z,7.15
2017-05-11T02:55:34.223Z,7.21
2017-05-11T02:56:15.104Z,7.17
2017-05-11T02:56:55.986Z,7.24
2017-05-11T02:57:36.849Z,7.13
2017-05-11T02:58:17.738Z,7.14
2017-05-11T02:58:58.604Z,7.14
2017-05-11T02:59:39.474Z,7.13
2017-05-11T03:00:20.351Z,7.21
2017-05-11T03:01:01.240Z,7.23
2017-05-11T03:01:42.118Z,7.17
2017-05-11T03:02:23.001Z,7.23
2017-05-11T03:03:03.882Z,7.23
2017-05-11T03:03:44.768Z,7.23
2017-05-11T03:04:25.653Z,7.17
2017-05-11T03:05:06.546Z,7.2
2017-05-11T03:05:47.427Z,7.25
2017-05-11T03:06:28.308Z,7.24
2017-05-11T03:07:09.192Z,7.18
2017-05-11T03:07:50.076Z,7.28
2017-05-11T03:08:30.959Z,7.2
2017-05-11T03:09:11.833Z,7.18
2017-05-11T03:09:52.906Z,7.21
2017-05-11T03:10:33.955Z,7.18
2017-05-11T03:11:14.845Z,7.15
2017-05-11T03:11:55.747Z,7.15
2017-05-11T03:12:36.622Z,7.15
2017-05-11T03:13:17.510Z,7.13
2017-05-11T03:13:58.382Z,7.07
2017-05-11T03:14:39.264Z,7.06
2017-05-11T03:15:20.145Z,7.07
2017-05-11T03:16:01.020Z,7.15
2017-05-11T03:16:41.907Z,7.02
2017-05-11T03:17:22.797Z,7.1
2017-05-11T03:18:03.697Z,7.18
2017-05-11T03:18:44.570Z,7.15
2017-05-11T03:19:25.447Z,7.15
2017-05-11T03:20:06.335Z,7.14
2017-05-11T03:20:47.947Z,7.05
2017-05-11T03:21:28.830Z,7.18
2017-05-11T03:22:09.716Z,7.17
2017-05-11T03:22:50.600Z,7.18
2017-05-11T03:23:31.467Z,7.23
2017-05-11T03:24:12.347Z,7.23
2017-05-11T03:24:53.225Z,7.28
2017-05-11T03:25:34.110Z,7.15
2017-05-11T03:26:15.007Z,7.2
2017-05-11T03:26:55.868Z,7.32
2017-05-11T03:27:36.745Z,7.28
2017-05-11T03:28:17.631Z,7.32
2017-05-11T03:28:58.522Z,7.43
2017-05-11T03:29:39.402Z,7.33
2017-05-11T03:30:20.271Z,7.32
2017-05-11T03:31:01.163Z,7.31
2017-05-11T03:31:42.038Z,7.36
2017-05-11T03:32:22.924Z,7.32
2017-05-11T03:33:03.786Z,7.33
2017-05-11T03:33:44.655Z,7.28
2017-05-11T03:34:25.542Z,7.29
2017-05-11T03:35:06.434Z,7.43
2017-05-11T03:35:47.306Z,7.31
2017-05-11T03:36:28.185Z,7.31
2017-05-11T03:37:09.067Z,7.35
2017-05-11T03:37:49.950Z,7.43
2017-05-11T03:38:30.844Z,7.32
2017-05-11T03:39:11.724Z,7.38
2017-05-11T03:39:52.624Z,7.38
2017-05-11T03:40:33.533Z,7.36
2017-05-11T03:41:14.381Z,7.43
2017-05-11T03:41:55.251Z,7.43
2017-05-11T03:42:36.131Z,7.47
2017-05-11T03:43:17.015Z,7.38
2017-05-11T03:43:57.907Z,7.47
2017-05-11T03:44:38.800Z,7.5
2017-05-11T03:45:19.691Z,7.48
2017-05-11T03:46:00.578Z,7.47
2017-05-11T03:46:41.480Z,7.5
2017-05-11T03:47:22.365Z,7.54
2017-05-11T03:48:03.257Z,7.58
2017-05-11T03:48:44.129Z,7.58
2017-05-11T03:49:25.004Z,7.58
2017-05-11T03:50:05.880Z,7.66
2017-05-11T03:50:46.799Z,7.67
2017-05-11T03:51:27.652Z,7.63
2017-05-11T03:52:08.561Z,7.67
2017-05-11T03:52:49.423Z,7.77
2017-05-11T03:53:30.319Z,7.7
2017-05-11T03:54:11.194Z,7.61
2017-05-11T03:54:52.079Z,7.66
2017-05-11T03:55:32.953Z,7.7
2017-05-11T03:56:13.836Z,7.7
2017-05-11T03:56:54.719Z,7.73
2017-05-11T03:57:35.598Z,7.7
2017-05-11T03:58:16.499Z,7.79
2017-05-11T03:58:57.362Z,7.79
2017-05-11T03:59:38.253Z,7.75
2017-05-11T04:00:19.130Z,7.83
2017-05-11T04:01:00.003Z,7.8
2017-05-11T04:01:40.888Z,7.85
2017-05-11T04:02:21.783Z,7.87
2017-05-11T04:03:02.664Z,7.7
2017-05-11T04:03:43.574Z,7.88
2017-05-11T04:04:24.414Z,7.83
2017-05-11T04:05:05.310Z,7.87
2017-05-11T04:05:46.182Z,7.88
2017-05-11T04:06:27.067Z,7.93
2017-05-11T04:07:07.954Z,8
2017-05-11T04:07:48.837Z,7.93
2017-05-11T04:08:29.716Z,7.87
2017-05-11T04:09:10.612Z,7.85
2017-05-11T04:09:51.501Z,8
2017-05-11T04:10:32.401Z,7.85
2017-05-11T04:11:13.264Z,7.88
2017-05-11T04:11:54.140Z,7.93
2017-05-11T04:12:35.023Z,7.83
2017-05-11T04:13:15.912Z,7.87
2017-05-11T04:13:56.793Z,7.94
2017-05-11T04:14:37.700Z,7.91
2017-05-11T04:15:18.559Z,7.94
2017-05-11T04:15:59.444Z,8
2017-05-11T04:16:40.326Z,8.03
2017-05-11T04:17:21.203Z,8.09
2017-05-11T04:18:02.088Z,8.08
2017-05-11T04:18:42.978Z,8.15
2017-05-11T04:19:23.880Z,8.19
2017-05-11T04:20:04.761Z,8.23
2017-05-11T04:20:45.655Z,8.16
2017-05-11T04:21:26.533Z,8.16
2017-05-11T04:22:07.422Z,8.15
2017-05-11T04:22:48.287Z,8.27
2017-05-11T04:23:29.158Z,8.24
2017-05-11T04:24:10.052Z,8.28
2017-05-11T04:24:50.929Z,8.23
2017-05-11T04:25:31.797Z,8.31
2017-05-11T04:26:12.682Z,8.24
2017-05-11T04:26:53.564Z,8.2
2017-05-11T04:27:34.419Z,8.2
2017-05-11T04:28:15.317Z,8.27
2017-05-11T04:28:56.203Z,8.34
2017-05-11T04:29:37.086Z,8.26
2017-05-11T04:30:17.971Z,8.37
2017-05-11T04:30:58.861Z,8.38
2017-05-11T04:31:39.741Z,8.33
2017-05-11T04:32:20.645Z,8.36
2017-05-11T04:33:01.525Z,8.34
2017-05-11T04:33:42.414Z,8.37
2017-05-11T04:34:23.293Z,8.3
2017-05-11T04:35:04.160Z,8.42
2017-05-11T04:35:45.039Z,8.46
2017-05-11T04:36:25.934Z,8.2
2017-05-11T04:37:06.813Z,8.08
2017-05-11T04:37:47.721Z,8.15
2017-05-11T04:38:28.592Z,8.2
2017-05-11T04:39:09.476Z,8.28
2017-05-11T04:39:50.366Z,8.27
2017-05-11T04:40:31.252Z,8.36
2017-05-11T04:41:12.129Z,8.37
2017-05-11T04:41:53.045Z,8.37
2017-05-11T04:42:33.902Z,8.36
2017-05-11T04:43:14.777Z,8.44
2017-05-11T04:43:55.661Z,8.42
2017-05-11T04:44:36.550Z,8.56
2017-05-11T04:45:17.437Z,8.56
2017-05-11T04:45:58.314Z,8.56
2017-05-11T04:46:39.203Z,8.61
2017-05-11T04:47:20.081Z,8.56
2017-05-11T04:48:00.964Z,8.56
2017-05-11T04:48:41.847Z,8.58
2017-05-11T04:49:22.730Z,8.61
2017-05-11T04:50:03.607Z,8.6
2017-05-11T04:50:44.492Z,8.63
2017-05-11T04:51:25.384Z,8.55
2017-05-11T04:52:06.260Z,8.78
2017-05-11T04:52:47.149Z,8.74
2017-05-11T04:53:28.034Z,8.78
2017-05-11T04:54:08.909Z,8.78
2017-05-11T04:54:49.791Z,8.74
2017-05-11T04:55:30.678Z,8.71
2017-05-11T04:56:11.558Z,8.74
2017-05-11T04:56:52.435Z,8.91
2017-05-11T04:57:33.321Z,8.94
2017-05-11T04:58:14.216Z,8.85
2017-05-11T04:58:55.098Z,8.87
2017-05-11T04:59:35.995Z,9
2017-05-11T05:01:10.278Z,9.11
2017-05-11T05:01:51.139Z,9.02
2017-05-11T05:02:32.020Z,9.03
2017-05-11T05:03:12.896Z,9.03
2017-05-11T05:03:53.778Z,9.03
2017-05-11T05:04:34.663Z,9.16
2017-05-11T05:05:15.543Z,9.18
2017-05-11T05:05:56.418Z,9.16
2017-05-11T05:06:37.298Z,9.19
2017-05-11T05:07:18.172Z,9.08
2017-05-11T05:07:59.055Z,9.03
2017-05-11T05:08:39.930Z,9.1
2017-05-11T05:09:20.809Z,8.97
2017-05-11T05:10:01.700Z,9.08
2017-05-11T05:10:42.572Z,9.1
2017-05-11T05:11:23.446Z,9.1
2017-05-11T05:12:04.326Z,9.14
2017-05-11T05:12:45.211Z,9.1
2017-05-11T05:13:26.102Z,9.11
2017-05-11T05:14:06.984Z,9.11
2017-05-11T05:14:47.868Z,9.02
2017-05-11T05:15:28.759Z,9.21
2017-05-11T05:16:09.658Z,9.21
2017-05-11T05:16:50.534Z,9.22
2017-05-11T05:17:31.423Z,9.32
2017-05-11T05:18:12.306Z,9.31
2017-05-11T05:18:53.185Z,9.39
2017-05-11T05:19:34.063Z,9.34
2017-05-11T05:20:14.994Z,9.37
2017-05-11T05:20:55.859Z,9.34
2017-05-11T05:21:36.739Z,9.26
2017-05-11T05:22:17.628Z,9.39
2017-05-11T05:22:58.492Z,9.31
2017-05-11T05:23:39.375Z,9.48
2017-05-11T05:24:20.275Z,9.51
2017-05-11T05:25:01.159Z,9.44
2017-05-11T05:25:42.030Z,9.48
2017-05-11T05:26:22.912Z,9.5
2017-05-11T05:27:03.790Z,9.46
2017-05-11T05:27:44.674Z,9.46
2017-05-11T05:28:25.554Z,9.55
2017-05-11T05:29:06.453Z,9.51
2017-05-11T05:29:47.343Z,9.64
2017-05-11T05:30:28.221Z,9.65
2017-05-11T05:31:09.173Z,9.72
2017-05-11T05:31:50.027Z,9.66
2017-05-11T05:32:30.905Z,9.66
2017-05-11T05:33:11.794Z,9.76
2017-05-11T05:33:52.682Z,9.79
2017-05-11T05:34:33.563Z,9.77
2017-05-11T05:35:14.434Z,9.8
2017-05-11T05:35:55.312Z,9.77
2017-05-11T05:36:36.206Z,9.79
2017-05-11T05:37:17.086Z,9.92
2017-05-11T05:37:57.954Z,9.92
2017-05-11T05:38:38.831Z,9.95
2017-05-11T05:39:19.707Z,10.04
2017-05-11T05:40:00.596Z,10.01
2017-05-11T05:40:41.476Z,9.86
2017-05-11T05:41:22.365Z,9.84
2017-05-11T05:42:03.244Z,9.79
2017-05-11T05:42:44.127Z,9.82
2017-05-11T05:43:25.004Z,9.86
2017-05-11T05:44:05.878Z,9.94
2017-05-11T05:44:46.760Z,9.99
2017-05-11T05:45:27.640Z,9.97
2017-05-11T05:46:08.523Z,9.97
2017-05-11T05:46:49.407Z,9.84
2017-05-11T05:47:30.303Z,9.76
2017-05-11T05:48:11.193Z,9.76
2017-05-11T05:48:52.107Z,9.8
2017-05-11T05:49:32.978Z,9.8
2017-05-11T05:50:13.873Z,9.91
2017-05-11T05:50:54.771Z,9.89
2017-05-11T05:51:35.618Z,9.97
2017-05-11T05:52:16.507Z,9.94
2017-05-11T05:52:57.408Z,9.92
2017-05-11T05:53:38.304Z,9.95
2017-05-11T05:54:19.143Z,9.98
2017-05-11T05:55:00.002Z,9.94
2017-05-11T05:55:40.882Z,9.89
2017-05-11T05:56:21.770Z,9.82
2017-05-11T05:57:02.644Z,9.92
2017-05-11T05:57:43.580Z,9.87
2017-05-11T05:58:24.460Z,9.84
2017-05-11T05:59:05.358Z,9.92
2017-05-11T05:59:46.219Z,9.89
2017-05-11T06:00:27.101Z,9.79
2017-05-11T06:01:07.986Z,9.87
2017-05-11T06:01:48.877Z,9.89
2017-05-11T06:02:29.761Z,9.92
2017-05-11T06:03:10.637Z,9.95
2017-05-11T06:03:51.518Z,9.95
2017-05-11T06:04:32.396Z,10.04
2017-05-11T06:05:13.269Z,10.07
2017-05-11T06:05:54.136Z,10.07
2017-05-11T06:06:35.017Z,10.16
2017-05-11T06:07:15.907Z,10.15
2017-05-11T06:07:56.789Z,10.17
2017-05-11T06:08:37.682Z,10.22
2017-05-11T06:09:18.582Z,10.25
2017-05-11T06:09:59.472Z,10.25
2017-05-11T06:10:40.345Z,10.22
2017-05-11T06:11:21.211Z,10.28
2017-05-11T06:12:02.092Z,10.26
2017-05-11T06:12:42.979Z,10.23
2017-05-11T06:13:23.859Z,10.37
2017-05-11T06:14:04.746Z,10.38
2017-05-11T06:14:45.642Z,10.31
2017-05-11T06:15:26.526Z,10.25
2017-05-11T06:16:07.408Z,10.31
2017-05-11T06:16:48.289Z,10.17
2017-05-11T06:17:29.156Z,10.25
2017-05-11T06:18:10.055Z,10.13
2017-05-11T06:18:50.907Z,10.2
2017-05-11T06:19:31.784Z,10.1
2017-05-11T06:20:12.675Z,10.35
2017-05-11T06:20:53.553Z,10.37
2017-05-11T06:21:34.434Z,10.38
2017-05-11T06:22:15.333Z,10.37
2017-05-11T06:22:56.216Z,10.33
2017-05-11T06:23:37.102Z,10.4
2017-05-11T06:24:17.980Z,10.48
2017-05-11T06:24:58.866Z,10.42
2017-05-11T06:25:39.749Z,10.41
2017-05-11T06:26:20.645Z,10.51
2017-05-11T06:27:01.528Z,10.71
2017-05-11T06:27:42.449Z,10.87
2017-05-11T06:28:23.298Z,11.04
2017-05-11T06:29:04.196Z,11.22
2017-05-11T06:29:45.079Z,11.41
2017-05-11T06:30:26.006Z,11.45
2017-05-11T06:31:06.865Z,11.51
2017-05-11T06:31:47.751Z,11.66
2017-05-11T06:32:28.639Z,11.83
2017-05-11T06:33:09.529Z,12
2017-05-11T06:33:50.421Z,12.35
2017-05-11T06:34:31.303Z,12.55
2017-05-11T06:35:12.192Z,13.01
2017-05-11T06:35:53.077Z,13.38
2017-05-11T06:36:33.957Z,13.68
2017-05-11T06:37:14.837Z,13.99
2017-05-11T06:37:55.728Z,14.33
2017-05-11T06:38:36.625Z,14.48
2017-05-11T06:39:17.511Z,14.92
2017-05-11T06:39:58.401Z,14.89
2017-05-11T06:40:39.303Z,15.15
2017-05-11T06:41:20.189Z,15.68
2017-05-11T06:42:01.075Z,16.23
2017-05-11T06:42:41.958Z,16.78
2017-05-11T06:43:22.838Z,17.06
2017-05-11T06:44:03.736Z,17.65
2017-05-11T06:44:44.627Z,17.94
2017-05-11T06:45:25.518Z,18.08
2017-05-11T06:46:06.416Z,18.44
2017-05-11T06:46:47.309Z,18.68
2017-05-11T06:47:28.197Z,18.66
2017-05-11T06:48:09.085Z,18.8
2017-05-11T06:48:49.965Z,19.24
2017-05-11T06:49:30.848Z,19.08
2017-05-11T06:50:11.757Z,19.26
2017-05-11T06:50:52.657Z,19.95
2017-05-11T06:51:33.576Z,20.4
2017-05-11T06:52:14.431Z,20.48
2017-05-11T06:52:55.315Z,20.36
2017-05-11T06:53:36.215Z,20.62
2017-05-11T06:54:17.153Z,20.44
2017-05-11T06:54:58.037Z,19.52
2017-05-11T06:55:38.927Z,19.55
2017-05-11T06:56:19.825Z,19.71
2017-05-11T06:57:00.740Z,19.47
2017-05-11T06:57:41.637Z,19.64
2017-05-11T06:58:22.576Z,20.03
2017-05-11T06:59:03.447Z,19.71
2017-05-11T06:59:44.389Z,19.22
2017-05-11T07:00:25.287Z,19.24
2017-05-11T07:01:06.170Z,18.86
2017-05-11T07:01:47.059Z,18.95
2017-05-11T07:02:27.938Z,18.92
2017-05-11T07:03:08.859Z,18.29
2017-05-11T07:03:49.758Z,18.81
2017-05-11T07:04:30.660Z,18.73
2017-05-11T07:05:11.548Z,18.78
2017-05-11T07:05:52.452Z,18.8
2017-05-11T07:06:33.335Z,18.45
2017-05-11T07:07:14.243Z,18.81
2017-05-11T07:07:55.142Z,19.07
2017-05-11T07:08:36.056Z,19.37
2017-05-11T07:09:16.931Z,19.44
2017-05-11T07:09:57.826Z,19.33
2017-05-11T07:10:38.719Z,19.18
2017-05-11T07:11:19.621Z,19.19
2017-05-11T07:12:00.507Z,19.14
2017-05-11T07:12:41.408Z,19.74
2017-05-11T07:13:22.304Z,19.16
2017-05-11T07:14:03.200Z,19.26
2017-05-11T07:14:44.098Z,19.33
2017-05-11T07:15:24.997Z,19.85
2017-05-11T07:16:05.881Z,20.18
2017-05-11T07:16:46.783Z,19.82
2017-05-11T07:17:27.676Z,20.5
2017-05-11T07:18:08.585Z,21.09
2017-05-11T07:18:49.499Z,21.73
2017-05-11T07:19:30.383Z,22.41
2017-05-11T07:20:11.282Z,21.83
2017-05-11T07:20:52.165Z,22.18
2017-05-11T07:21:33.083Z,21.96
2017-05-11T07:22:13.983Z,22.17
2017-05-11T07:22:54.881Z,22.43
2017-05-11T07:23:35.782Z,22.69
2017-05-11T07:24:16.679Z,22.51
2017-05-11T07:24:57.579Z,22.39
2017-05-11T07:25:38.479Z,22.54
2017-05-11T07:26:19.382Z,22.53
2017-05-11T07:27:00.277Z,22.7
2017-05-11T07:27:41.178Z,22.6
2017-05-11T07:28:22.091Z,22.88
2017-05-11T07:29:03.686Z,22.76
2017-05-11T07:29:44.577Z,22.84
2017-05-11T07:30:25.501Z,22.99
2017-05-11T07:31:06.389Z,23.24
2017-05-11T07:31:47.284Z,23.59
2017-05-11T07:32:28.191Z,23.76
2017-05-11T07:33:09.074Z,23.96
2017-05-11T07:33:49.998Z,23.83
2017-05-11T07:34:30.893Z,22.75
2017-05-11T07:35:11.783Z,22.69
2017-05-11T07:35:52.684Z,22.94
2017-05-11T07:36:33.679Z,22.25
2017-05-11T07:37:14.582Z,21.85
2017-05-11T07:37:55.487Z,21.48
2017-05-11T07:38:36.401Z,20.87
2017-05-11T07:39:17.300Z,21.39
2017-05-11T07:39:58.217Z,21.4
2017-05-11T07:40:39.112Z,21.69
2017-05-11T07:41:20.010Z,22.39
2017-05-11T07:42:00.908Z,22.69
2017-05-11T07:42:41.815Z,22.38
2017-05-11T07:43:22.719Z,22.43
2017-05-11T07:44:03.620Z,23.02
2017-05-11T07:44:44.523Z,23.61
2017-05-11T07:45:25.410Z,23.1
2017-05-11T07:46:06.318Z,22.76
2017-05-11T07:46:47.241Z,22.91
2017-05-11T07:47:28.129Z,21.62
2017-05-11T07:48:09.036Z,22.26
2017-05-11T07:48:49.947Z,22.33
2017-05-11T07:49:30.834Z,22.48
2017-05-11T07:50:11.741Z,22.2
2017-05-11T07:50:52.637Z,22.62
2017-05-11T07:51:33.537Z,22.96
2017-05-11T07:52:14.454Z,22.66
2017-05-11T07:52:55.355Z,22.11
2017-05-11T07:53:36.258Z,22.28
2017-05-11T07:54:17.188Z,22.66
2017-05-11T07:54:58.083Z,22.85
2017-05-11T07:55:38.967Z,23.02
2017-05-11T07:56:19.877Z,23.41
2017-05-11T07:57:00.784Z,23.95
2017-05-11T07:57:41.698Z,24.43
2017-05-11T07:58:22.595Z,24.03
2017-05-11T07:59:03.494Z,23.73
2017-05-11T07:59:44.389Z,24.23
2017-05-11T08:00:25.297Z,23.28
2017-05-11T08:01:06.191Z,23.47
2017-05-11T08:01:47.102Z,24.4
2017-05-11T08:02:28.018Z,24.45
2017-05-11T08:03:08.896Z,24.01
2017-05-11T08:03:49.801Z,23.69
2017-05-11T08:04:30.707Z,24.39
2017-05-11T08:05:11.609Z,24.76
2017-05-11T08:05:52.501Z,24.91
2017-05-11T08:06:33.405Z,24.99
2017-05-11T08:07:14.310Z,23.98
2017-05-11T08:07:55.224Z,23.91
2017-05-11T08:08:36.133Z,24.16
2017-05-11T08:09:17.042Z,24.51
2017-05-11T08:09:57.949Z,24.2
2017-05-11T08:10:38.854Z,24.35
2017-05-11T08:11:19.761Z,23.41
2017-05-11T08:12:00.679Z,24.38
2017-05-11T08:12:41.585Z,24.39
2017-05-11T08:13:22.495Z,25.21
2017-05-11T08:14:03.424Z,24.61
2017-05-11T08:14:44.336Z,24.74
2017-05-11T08:15:25.242Z,24.7
2017-05-11T08:16:06.148Z,24.86
2017-05-11T08:16:47.045Z,25.07
2017-05-11T08:17:27.954Z,25.08
2017-05-11T08:18:08.848Z,25.26
2017-05-11T08:18:49.753Z,24.47
2017-05-11T08:19:30.669Z,25.1
2017-05-11T08:20:11.578Z,24.86
2017-05-11T08:20:52.487Z,25.43
2017-05-11T08:21:33.396Z,25.35
2017-05-11T08:22:14.277Z,25.18
2017-05-11T08:22:55.180Z,25.48
2017-05-11T08:23:36.094Z,26.03
2017-05-11T08:24:17.004Z,26.47
2017-05-11T08:24:57.911Z,27.15
2017-05-11T08:25:38.841Z,27.21
2017-05-11T08:26:19.732Z,27.74
2017-05-11T08:27:00.643Z,27.48
2017-05-11T08:27:41.550Z,25.95
2017-05-11T08:28:22.461Z,25.13
2017-05-11T08:29:03.368Z,24.86
2017-05-11T08:29:44.277Z,25.01
2017-05-11T08:30:25.182Z,24.88
2017-05-11T08:31:06.097Z,23.92
2017-05-11T08:31:47.000Z,25.01
2017-05-11T08:32:27.903Z,25.85
2017-05-11T08:33:08.816Z,26.15
2017-05-11T08:33:49.713Z,25.31
2017-05-11T08:34:30.619Z,24.61
2017-05-11T08:35:11.521Z,24.73
2017-05-11T08:35:52.436Z,25.17
2017-05-11T08:36:33.336Z,25.93
2017-05-11T08:37:14.232Z,26.43
2017-05-11T08:37:55.135Z,26.51
2017-05-11T08:38:36.046Z,26.51
2017-05-11T08:39:16.948Z,26.66
2017-05-11T08:39:57.890Z,26.56
2017-05-11T08:40:38.797Z,25.51
2017-05-11T08:41:19.708Z,26.33
2017-05-11T08:42:00.608Z,26.92
2017-05-11T08:42:41.512Z,26.48
2017-05-11T08:43:22.410Z,25.59
2017-05-11T08:44:03.316Z,25.81
2017-05-11T08:44:44.222Z,26.53
2017-05-11T08:45:25.137Z,27.36
2017-05-11T08:46:06.037Z,27.92
2017-05-11T08:46:46.932Z,28.32
2017-05-11T08:47:27.837Z,28.47
2017-05-11T08:48:08.730Z,28.26
2017-05-11T08:48:49.639Z,27.35
2017-05-11T08:49:30.534Z,26.02
2017-05-11T08:50:11.426Z,26.65
2017-05-11T08:50:52.334Z,26.75
2017-05-11T08:51:33.231Z,26.85
2017-05-11T08:52:14.167Z,27.47
2017-05-11T08:52:55.047Z,26.7
2017-05-11T08:53:35.967Z,26.23
2017-05-11T08:54:16.869Z,26.4
2017-05-11T08:54:57.768Z,26.88
2017-05-11T08:55:38.664Z,27.4
2017-05-11T08:56:19.577Z,27.68
2017-05-11T08:57:00.533Z,27.14
2017-05-11T08:58:19.401Z,27.96
2017-05-11T08:59:00.291Z,27.92
2017-05-11T08:59:41.185Z,28.05
2017-05-11T09:00:22.106Z,28.01
2017-05-11T09:01:03.001Z,28.02
2017-05-11T09:01:43.908Z,27.86
2017-05-11T09:02:24.808Z,27.95
2017-05-11T09:03:05.724Z,26.81
2017-05-11T09:03:46.619Z,26.97